sensor_id;sensor_type;location;lat;lon;timestamp;P1;durP1;ratioP1;P2;durP2;ratioP2
33152;SDS011;19509;43.862;26.176;2024-03-07T00:01:28;1.50;;;1.50;;
33152;SDS011;19509;43.862;26.176;2024-03-07T00:03:53;1.50;;;1.50;;
33152;SDS011;19509;43.862;26.176;2024-03-07T00:06:19;1.67;;;1.67;;
33152;SDS011;19509;43.862;26.176;2024-03-07T00:08:46;1.50;;;1.50;;
33152;SDS011;19509;43.862;26.176;2024-03-07T00:11:11;1.90;;;1.90;;
33152;SDS011;19509;43.862;26.176;2024-03-07T00:13:36;1.40;;;1.40;;
33152;SDS011;19509;43.862;26.176;2024-03-07T00:16:02;1.47;;;1.47;;
33152;SDS011;19509;43.862;26.176;2024-03-07T00:18:28;1.60;;;1.60;;
33152;SDS011;19509;43.862;26.176;2024-03-07T00:20:53;1.77;;;1.77;;
33152;SDS011;19509;43.862;26.176;2024-03-07T00:23:20;1.57;;;1.57;;
33152;SDS011;19509;43.862;26.176;2024-03-07T00:25:45;1.63;;;1.63;;
33152;SDS011;19509;43.862;26.176;2024-03-07T00:28:11;1.70;;;1.70;;
33152;SDS011;19509;43.862;26.176;2024-03-07T00:30:36;1.83;;;1.83;;
33152;SDS011;19509;43.862;26.176;2024-03-07T00:33:02;1.60;;;1.60;;
33152;SDS011;19509;43.862;26.176;2024-03-07T00:35:27;1.80;;;1.80;;
33152;SDS011;19509;43.862;26.176;2024-03-07T00:37:53;1.60;;;1.60;;
33152;SDS011;19509;43.862;26.176;2024-03-07T00:40:18;2.23;;;2.23;;
33152;SDS011;19509;43.862;26.176;2024-03-07T00:42:44;2.57;;;2.50;;
33152;SDS011;19509;43.862;26.176;2024-03-07T00:45:09;2.40;;;2.40;;
33152;SDS011;19509;43.862;26.176;2024-03-07T00:47:35;2.30;;;2.30;;
33152;SDS011;19509;43.862;26.176;2024-03-07T00:50:00;2.10;;;2.10;;
33152;SDS011;19509;43.862;26.176;2024-03-07T00:52:26;1.80;;;1.80;;
33152;SDS011;19509;43.862;26.176;2024-03-07T00:54:51;1.67;;;1.67;;
33152;SDS011;19509;43.862;26.176;2024-03-07T00:57:17;1.70;;;1.70;;
33152;SDS011;19509;43.862;26.176;2024-03-07T00:59:42;1.60;;;1.60;;
33152;SDS011;19509;43.862;26.176;2024-03-07T01:02:08;2.20;;;2.10;;
33152;SDS011;19509;43.862;26.176;2024-03-07T01:04:33;2.17;;;2.07;;
33152;SDS011;19509;43.862;26.176;2024-03-07T01:06:59;1.97;;;1.97;;
33152;SDS011;19509;43.862;26.176;2024-03-07T01:09:25;1.70;;;1.70;;
33152;SDS011;19509;43.862;26.176;2024-03-07T01:11:50;1.60;;;1.60;;
33152;SDS011;19509;43.862;26.176;2024-03-07T01:14:16;1.80;;;1.80;;
33152;SDS011;19509;43.862;26.176;2024-03-07T01:16:42;1.67;;;1.67;;
33152;SDS011;19509;43.862;26.176;2024-03-07T01:19:07;1.80;;;1.80;;
33152;SDS011;19509;43.862;26.176;2024-03-07T01:21:33;2.17;;;2.17;;
33152;SDS011;19509;43.862;26.176;2024-03-07T01:24:00;2.10;;;2.10;;
33152;SDS011;19509;43.862;26.176;2024-03-07T01:26:26;2.40;;;2.30;;
33152;SDS011;19509;43.862;26.176;2024-03-07T01:28:51;1.90;;;1.80;;
33152;SDS011;19509;43.862;26.176;2024-03-07T01:31:17;1.73;;;1.73;;
33152;SDS011;19509;43.862;26.176;2024-03-07T01:33:43;1.70;;;1.70;;
33152;SDS011;19509;43.862;26.176;2024-03-07T01:36:09;1.80;;;1.80;;
33152;SDS011;19509;43.862;26.176;2024-03-07T01:38:34;1.57;;;1.57;;
33152;SDS011;19509;43.862;26.176;2024-03-07T01:41:00;1.70;;;1.70;;
33152;SDS011;19509;43.862;26.176;2024-03-07T01:43:26;1.80;;;1.80;;
33152;SDS011;19509;43.862;26.176;2024-03-07T01:45:51;1.73;;;1.73;;
33152;SDS011;19509;43.862;26.176;2024-03-07T01:48:21;1.70;;;1.70;;
33152;SDS011;19509;43.862;26.176;2024-03-07T01:50:50;1.70;;;1.70;;
33152;SDS011;19509;43.862;26.176;2024-03-07T01:53:15;1.60;;;1.60;;
33152;SDS011;19509;43.862;26.176;2024-03-07T01:55:41;1.70;;;1.70;;
33152;SDS011;19509;43.862;26.176;2024-03-07T01:58:07;1.40;;;1.40;;
33152;SDS011;19509;43.862;26.176;2024-03-07T02:00:33;1.50;;;1.50;;
33152;SDS011;19509;43.862;26.176;2024-03-07T02:02:59;1.80;;;1.80;;
33152;SDS011;19509;43.862;26.176;2024-03-07T02:05:24;1.60;;;1.60;;
33152;SDS011;19509;43.862;26.176;2024-03-07T02:07:50;1.70;;;1.70;;
33152;SDS011;19509;43.862;26.176;2024-03-07T02:10:16;1.53;;;1.53;;
33152;SDS011;19509;43.862;26.176;2024-03-07T02:12:42;1.60;;;1.60;;
33152;SDS011;19509;43.862;26.176;2024-03-07T02:15:08;1.60;;;1.60;;
33152;SDS011;19509;43.862;26.176;2024-03-07T02:17:33;1.50;;;1.50;;
33152;SDS011;19509;43.862;26.176;2024-03-07T02:20:00;1.67;;;1.57;;
33152;SDS011;19509;43.862;26.176;2024-03-07T02:22:25;1.50;;;1.50;;
33152;SDS011;19509;43.862;26.176;2024-03-07T02:24:51;1.63;;;1.63;;
33152;SDS011;19509;43.862;26.176;2024-03-07T02:27:17;1.60;;;1.60;;
33152;SDS011;19509;43.862;26.176;2024-03-07T02:29:42;1.50;;;1.50;;
33152;SDS011;19509;43.862;26.176;2024-03-07T02:32:08;1.50;;;1.50;;
33152;SDS011;19509;43.862;26.176;2024-03-07T02:34:35;1.70;;;1.70;;
33152;SDS011;19509;43.862;26.176;2024-03-07T02:37:00;1.43;;;1.43;;
33152;SDS011;19509;43.862;26.176;2024-03-07T02:39:26;1.60;;;1.60;;
33152;SDS011;19509;43.862;26.176;2024-03-07T02:41:51;1.77;;;1.77;;
33152;SDS011;19509;43.862;26.176;2024-03-07T02:44:17;1.50;;;1.50;;
33152;SDS011;19509;43.862;26.176;2024-03-07T02:46:42;1.67;;;1.67;;
33152;SDS011;19509;43.862;26.176;2024-03-07T02:49:07;1.60;;;1.60;;
33152;SDS011;19509;43.862;26.176;2024-03-07T02:51:33;1.57;;;1.57;;
33152;SDS011;19509;43.862;26.176;2024-03-07T02:53:58;1.80;;;1.80;;
33152;SDS011;19509;43.862;26.176;2024-03-07T02:56:24;1.43;;;1.43;;
33152;SDS011;19509;43.862;26.176;2024-03-07T02:58:52;1.80;;;1.80;;
33152;SDS011;19509;43.862;26.176;2024-03-07T03:01:18;1.50;;;1.50;;
33152;SDS011;19509;43.862;26.176;2024-03-07T03:03:43;1.60;;;1.60;;
33152;SDS011;19509;43.862;26.176;2024-03-07T03:06:09;1.70;;;1.70;;
33152;SDS011;19509;43.862;26.176;2024-03-07T03:08:35;1.70;;;1.70;;
33152;SDS011;19509;43.862;26.176;2024-03-07T03:11:00;2.00;;;2.00;;
33152;SDS011;19509;43.862;26.176;2024-03-07T03:13:26;1.70;;;1.70;;
33152;SDS011;19509;43.862;26.176;2024-03-07T03:15:54;1.50;;;1.50;;
33152;SDS011;19509;43.862;26.176;2024-03-07T03:18:22;1.47;;;1.47;;
33152;SDS011;19509;43.862;26.176;2024-03-07T03:20:48;1.87;;;1.87;;
33152;SDS011;19509;43.862;26.176;2024-03-07T03:23:14;1.40;;;1.40;;
33152;SDS011;19509;43.862;26.176;2024-03-07T03:25:39;1.80;;;1.80;;
33152;SDS011;19509;43.862;26.176;2024-03-07T03:28:05;1.50;;;1.50;;
33152;SDS011;19509;43.862;26.176;2024-03-07T03:30:31;1.60;;;1.60;;
33152;SDS011;19509;43.862;26.176;2024-03-07T03:32:57;1.67;;;1.67;;
33152;SDS011;19509;43.862;26.176;2024-03-07T03:35:23;1.70;;;1.70;;
33152;SDS011;19509;43.862;26.176;2024-03-07T03:37:48;1.60;;;1.60;;
33152;SDS011;19509;43.862;26.176;2024-03-07T03:40:13;1.67;;;1.67;;
33152;SDS011;19509;43.862;26.176;2024-03-07T03:42:39;1.77;;;1.77;;
33152;SDS011;19509;43.862;26.176;2024-03-07T03:45:05;1.70;;;1.70;;
33152;SDS011;19509;43.862;26.176;2024-03-07T03:47:36;1.70;;;1.70;;
33152;SDS011;19509;43.862;26.176;2024-03-07T03:50:08;1.67;;;1.67;;
33152;SDS011;19509;43.862;26.176;2024-03-07T03:52:33;1.80;;;1.80;;
33152;SDS011;19509;43.862;26.176;2024-03-07T03:55:00;1.63;;;1.63;;
33152;SDS011;19509;43.862;26.176;2024-03-07T03:57:25;1.80;;;1.80;;
33152;SDS011;19509;43.862;26.176;2024-03-07T03:59:51;1.50;;;1.50;;
33152;SDS011;19509;43.862;26.176;2024-03-07T04:02:17;1.87;;;1.87;;
33152;SDS011;19509;43.862;26.176;2024-03-07T04:04:42;1.57;;;1.57;;
33152;SDS011;19509;43.862;26.176;2024-03-07T04:07:10;1.70;;;1.70;;
33152;SDS011;19509;43.862;26.176;2024-03-07T04:09:36;1.70;;;1.70;;
33152;SDS011;19509;43.862;26.176;2024-03-07T04:12:01;1.60;;;1.60;;
33152;SDS011;19509;43.862;26.176;2024-03-07T04:14:26;1.50;;;1.50;;
33152;SDS011;19509;43.862;26.176;2024-03-07T04:16:52;1.80;;;1.80;;
33152;SDS011;19509;43.862;26.176;2024-03-07T04:19:21;1.80;;;1.57;;
33152;SDS011;19509;43.862;26.176;2024-03-07T04:21:47;1.50;;;1.50;;
33152;SDS011;19509;43.862;26.176;2024-03-07T04:24:12;1.67;;;1.67;;
33152;SDS011;19509;43.862;26.176;2024-03-07T04:26:38;1.60;;;1.60;;
33152;SDS011;19509;43.862;26.176;2024-03-07T04:29:03;1.73;;;1.73;;
33152;SDS011;19509;43.862;26.176;2024-03-07T04:31:28;1.97;;;1.97;;
33152;SDS011;19509;43.862;26.176;2024-03-07T04:33:54;1.57;;;1.57;;
33152;SDS011;19509;43.862;26.176;2024-03-07T04:36:19;1.57;;;1.57;;
33152;SDS011;19509;43.862;26.176;2024-03-07T04:38:45;1.57;;;1.57;;
33152;SDS011;19509;43.862;26.176;2024-03-07T04:41:11;1.53;;;1.53;;
33152;SDS011;19509;43.862;26.176;2024-03-07T04:43:36;1.37;;;1.37;;
33152;SDS011;19509;43.862;26.176;2024-03-07T04:46:02;1.50;;;1.50;;
33152;SDS011;19509;43.862;26.176;2024-03-07T04:48:27;1.40;;;1.40;;
33152;SDS011;19509;43.862;26.176;2024-03-07T04:50:55;1.57;;;1.57;;
33152;SDS011;19509;43.862;26.176;2024-03-07T04:53:22;1.43;;;1.43;;
33152;SDS011;19509;43.862;26.176;2024-03-07T04:55:47;1.70;;;1.70;;
33152;SDS011;19509;43.862;26.176;2024-03-07T04:58:13;1.60;;;1.60;;
33152;SDS011;19509;43.862;26.176;2024-03-07T05:00:38;1.50;;;1.40;;
33152;SDS011;19509;43.862;26.176;2024-03-07T05:03:04;1.50;;;1.50;;
33152;SDS011;19509;43.862;26.176;2024-03-07T05:05:29;1.60;;;1.60;;
33152;SDS011;19509;43.862;26.176;2024-03-07T05:07:55;1.50;;;1.50;;
33152;SDS011;19509;43.862;26.176;2024-03-07T05:10:23;1.67;;;1.67;;
33152;SDS011;19509;43.862;26.176;2024-03-07T05:12:49;1.70;;;1.70;;
33152;SDS011;19509;43.862;26.176;2024-03-07T05:15:15;1.40;;;1.40;;
33152;SDS011;19509;43.862;26.176;2024-03-07T05:17:40;1.60;;;1.60;;
33152;SDS011;19509;43.862;26.176;2024-03-07T05:20:08;1.70;;;1.70;;
33152;SDS011;19509;43.862;26.176;2024-03-07T05:22:35;1.70;;;1.70;;
33152;SDS011;19509;43.862;26.176;2024-03-07T05:25:04;1.53;;;1.53;;
33152;SDS011;19509;43.862;26.176;2024-03-07T05:27:30;1.50;;;1.50;;
33152;SDS011;19509;43.862;26.176;2024-03-07T05:29:56;1.80;;;1.80;;
33152;SDS011;19509;43.862;26.176;2024-03-07T05:32:23;1.60;;;1.60;;
33152;SDS011;19509;43.862;26.176;2024-03-07T05:34:49;1.50;;;1.50;;
33152;SDS011;19509;43.862;26.176;2024-03-07T05:37:15;1.60;;;1.60;;
33152;SDS011;19509;43.862;26.176;2024-03-07T05:39:41;1.50;;;1.50;;
33152;SDS011;19509;43.862;26.176;2024-03-07T05:42:06;1.70;;;1.70;;
33152;SDS011;19509;43.862;26.176;2024-03-07T05:44:32;1.60;;;1.60;;
33152;SDS011;19509;43.862;26.176;2024-03-07T05:46:57;1.70;;;1.70;;
33152;SDS011;19509;43.862;26.176;2024-03-07T05:49:23;1.63;;;1.63;;
33152;SDS011;19509;43.862;26.176;2024-03-07T05:51:49;1.60;;;1.60;;
33152;SDS011;19509;43.862;26.176;2024-03-07T05:54:14;1.40;;;1.40;;
33152;SDS011;19509;43.862;26.176;2024-03-07T05:56:40;1.43;;;1.43;;
33152;SDS011;19509;43.862;26.176;2024-03-07T05:59:06;1.50;;;1.50;;
33152;SDS011;19509;43.862;26.176;2024-03-07T06:01:37;1.47;;;1.47;;
33152;SDS011;19509;43.862;26.176;2024-03-07T06:04:03;1.50;;;1.50;;
33152;SDS011;19509;43.862;26.176;2024-03-07T06:06:30;1.40;;;1.40;;
33152;SDS011;19509;43.862;26.176;2024-03-07T06:08:57;1.37;;;1.37;;
33152;SDS011;19509;43.862;26.176;2024-03-07T06:11:22;1.30;;;1.30;;
33152;SDS011;19509;43.862;26.176;2024-03-07T06:13:48;1.40;;;1.40;;
33152;SDS011;19509;43.862;26.176;2024-03-07T06:16:13;1.20;;;1.20;;
33152;SDS011;19509;43.862;26.176;2024-03-07T06:18:40;1.40;;;1.40;;
33152;SDS011;19509;43.862;26.176;2024-03-07T06:21:05;1.90;;;1.40;;
33152;SDS011;19509;43.862;26.176;2024-03-07T06:23:31;1.80;;;1.70;;
33152;SDS011;19509;43.862;26.176;2024-03-07T06:25:57;1.40;;;1.40;;
33152;SDS011;19509;43.862;26.176;2024-03-07T06:28:24;1.40;;;1.40;;
33152;SDS011;19509;43.862;26.176;2024-03-07T06:30:50;1.33;;;1.33;;
33152;SDS011;19509;43.862;26.176;2024-03-07T06:33:15;1.53;;;1.53;;
33152;SDS011;19509;43.862;26.176;2024-03-07T06:35:44;1.33;;;1.33;;
33152;SDS011;19509;43.862;26.176;2024-03-07T06:38:10;1.40;;;1.40;;
33152;SDS011;19509;43.862;26.176;2024-03-07T06:40:36;1.20;;;1.20;;
33152;SDS011;19509;43.862;26.176;2024-03-07T06:43:02;1.40;;;1.40;;
33152;SDS011;19509;43.862;26.176;2024-03-07T06:45:31;1.40;;;1.40;;
33152;SDS011;19509;43.862;26.176;2024-03-07T06:47:57;1.20;;;1.20;;
33152;SDS011;19509;43.862;26.176;2024-03-07T06:50:22;1.17;;;1.17;;
33152;SDS011;19509;43.862;26.176;2024-03-07T06:52:48;1.30;;;1.30;;
33152;SDS011;19509;43.862;26.176;2024-03-07T06:55:14;1.00;;;1.00;;
33152;SDS011;19509;43.862;26.176;2024-03-07T06:57:41;1.30;;;1.30;;
33152;SDS011;19509;43.862;26.176;2024-03-07T07:00:07;1.23;;;1.23;;
33152;SDS011;19509;43.862;26.176;2024-03-07T07:02:39;1.37;;;1.30;;
33152;SDS011;19509;43.862;26.176;2024-03-07T07:05:07;1.10;;;1.10;;
33152;SDS011;19509;43.862;26.176;2024-03-07T07:07:38;1.23;;;1.23;;
33152;SDS011;19509;43.862;26.176;2024-03-07T07:10:04;1.20;;;1.20;;
33152;SDS011;19509;43.862;26.176;2024-03-07T07:12:32;1.10;;;1.10;;
33152;SDS011;19509;43.862;26.176;2024-03-07T07:14:58;1.23;;;1.23;;
33152;SDS011;19509;43.862;26.176;2024-03-07T07:17:23;1.00;;;1.00;;
33152;SDS011;19509;43.862;26.176;2024-03-07T07:19:50;1.20;;;1.20;;
33152;SDS011;19509;43.862;26.176;2024-03-07T07:22:17;1.23;;;1.23;;
33152;SDS011;19509;43.862;26.176;2024-03-07T07:24:43;1.10;;;1.10;;
33152;SDS011;19509;43.862;26.176;2024-03-07T07:27:09;1.10;;;1.10;;
33152;SDS011;19509;43.862;26.176;2024-03-07T07:29:34;0.90;;;0.90;;
33152;SDS011;19509;43.862;26.176;2024-03-07T07:32:00;0.97;;;0.97;;
33152;SDS011;19509;43.862;26.176;2024-03-07T07:34:25;1.23;;;1.20;;
33152;SDS011;19509;43.862;26.176;2024-03-07T07:36:51;0.70;;;0.70;;
33152;SDS011;19509;43.862;26.176;2024-03-07T07:39:18;1.10;;;1.10;;
33152;SDS011;19509;43.862;26.176;2024-03-07T07:41:43;1.03;;;1.03;;
33152;SDS011;19509;43.862;26.176;2024-03-07T07:44:08;0.83;;;0.83;;
33152;SDS011;19509;43.862;26.176;2024-03-07T07:46:34;0.90;;;0.90;;
33152;SDS011;19509;43.862;26.176;2024-03-07T07:49:01;1.00;;;1.00;;
33152;SDS011;19509;43.862;26.176;2024-03-07T07:51:26;1.10;;;1.10;;
33152;SDS011;19509;43.862;26.176;2024-03-07T07:53:51;0.93;;;0.93;;
33152;SDS011;19509;43.862;26.176;2024-03-07T07:56:19;0.80;;;0.80;;
33152;SDS011;19509;43.862;26.176;2024-03-07T07:58:44;1.10;;;1.10;;
33152;SDS011;19509;43.862;26.176;2024-03-07T08:01:09;1.10;;;1.10;;
33152;SDS011;19509;43.862;26.176;2024-03-07T08:03:35;1.00;;;1.00;;
33152;SDS011;19509;43.862;26.176;2024-03-07T08:06:01;0.90;;;0.90;;
33152;SDS011;19509;43.862;26.176;2024-03-07T08:08:27;1.00;;;1.00;;
33152;SDS011;19509;43.862;26.176;2024-03-07T08:10:53;1.10;;;1.10;;
33152;SDS011;19509;43.862;26.176;2024-03-07T08:13:18;1.20;;;1.20;;
33152;SDS011;19509;43.862;26.176;2024-03-07T08:15:43;1.10;;;1.10;;
33152;SDS011;19509;43.862;26.176;2024-03-07T08:18:09;0.80;;;0.80;;
33152;SDS011;19509;43.862;26.176;2024-03-07T08:20:34;1.10;;;1.10;;
33152;SDS011;19509;43.862;26.176;2024-03-07T08:23:00;1.10;;;1.10;;
33152;SDS011;19509;43.862;26.176;2024-03-07T08:25:26;1.20;;;1.20;;
33152;SDS011;19509;43.862;26.176;2024-03-07T08:27:53;0.93;;;0.93;;
33152;SDS011;19509;43.862;26.176;2024-03-07T08:30:18;1.03;;;1.03;;
33152;SDS011;19509;43.862;26.176;2024-03-07T08:32:45;1.00;;;1.00;;
33152;SDS011;19509;43.862;26.176;2024-03-07T08:35:10;1.20;;;1.20;;
33152;SDS011;19509;43.862;26.176;2024-03-07T08:37:36;0.90;;;0.90;;
33152;SDS011;19509;43.862;26.176;2024-03-07T08:40:02;1.17;;;1.17;;
33152;SDS011;19509;43.862;26.176;2024-03-07T08:42:38;1.30;;;1.30;;
33152;SDS011;19509;43.862;26.176;2024-03-07T08:45:04;1.00;;;1.00;;
33152;SDS011;19509;43.862;26.176;2024-03-07T08:47:33;1.00;;;1.00;;
33152;SDS011;19509;43.862;26.176;2024-03-07T08:49:59;1.27;;;1.27;;
33152;SDS011;19509;43.862;26.176;2024-03-07T08:52:24;1.10;;;1.10;;
33152;SDS011;19509;43.862;26.176;2024-03-07T08:54:50;1.20;;;1.20;;
33152;SDS011;19509;43.862;26.176;2024-03-07T08:57:15;1.10;;;1.10;;
33152;SDS011;19509;43.862;26.176;2024-03-07T08:59:43;1.17;;;1.17;;
33152;SDS011;19509;43.862;26.176;2024-03-07T09:02:09;1.20;;;1.20;;
33152;SDS011;19509;43.862;26.176;2024-03-07T09:04:35;1.00;;;1.00;;
33152;SDS011;19509;43.862;26.176;2024-03-07T09:07:01;1.10;;;1.10;;
33152;SDS011;19509;43.862;26.176;2024-03-07T09:09:26;1.00;;;1.00;;
33152;SDS011;19509;43.862;26.176;2024-03-07T09:11:52;1.00;;;1.00;;
33152;SDS011;19509;43.862;26.176;2024-03-07T09:14:17;1.00;;;1.00;;
33152;SDS011;19509;43.862;26.176;2024-03-07T09:16:42;1.10;;;1.10;;
33152;SDS011;19509;43.862;26.176;2024-03-07T09:19:08;1.20;;;1.20;;
33152;SDS011;19509;43.862;26.176;2024-03-07T09:21:39;0.93;;;0.93;;
33152;SDS011;19509;43.862;26.176;2024-03-07T09:24:05;1.20;;;1.20;;
33152;SDS011;19509;43.862;26.176;2024-03-07T09:26:31;1.20;;;1.20;;
33152;SDS011;19509;43.862;26.176;2024-03-07T09:28:57;1.10;;;1.10;;
33152;SDS011;19509;43.862;26.176;2024-03-07T09:31:22;1.20;;;1.20;;
33152;SDS011;19509;43.862;26.176;2024-03-07T09:33:48;1.00;;;1.00;;
33152;SDS011;19509;43.862;26.176;2024-03-07T09:36:14;1.30;;;1.30;;
33152;SDS011;19509;43.862;26.176;2024-03-07T09:38:39;1.10;;;1.10;;
33152;SDS011;19509;43.862;26.176;2024-03-07T09:41:06;1.20;;;1.20;;
33152;SDS011;19509;43.862;26.176;2024-03-07T09:43:31;1.20;;;1.20;;
33152;SDS011;19509;43.862;26.176;2024-03-07T09:45:58;1.20;;;1.20;;
33152;SDS011;19509;43.862;26.176;2024-03-07T09:48:24;1.03;;;1.03;;
33152;SDS011;19509;43.862;26.176;2024-03-07T09:50:53;0.90;;;0.90;;
33152;SDS011;19509;43.862;26.176;2024-03-07T09:53:20;1.00;;;1.00;;
33152;SDS011;19509;43.862;26.176;2024-03-07T09:55:46;1.10;;;1.10;;
33152;SDS011;19509;43.862;26.176;2024-03-07T09:58:11;1.10;;;1.10;;
33152;SDS011;19509;43.862;26.176;2024-03-07T10:00:38;1.00;;;1.00;;
33152;SDS011;19509;43.862;26.176;2024-03-07T10:03:05;0.90;;;0.90;;
33152;SDS011;19509;43.862;26.176;2024-03-07T10:05:33;1.10;;;1.10;;
33152;SDS011;19509;43.862;26.176;2024-03-07T10:07:59;1.03;;;1.03;;
33152;SDS011;19509;43.862;26.176;2024-03-07T10:10:25;1.03;;;1.03;;
33152;SDS011;19509;43.862;26.176;2024-03-07T10:12:51;1.17;;;1.17;;
33152;SDS011;19509;43.862;26.176;2024-03-07T10:15:18;1.00;;;1.00;;
33152;SDS011;19509;43.862;26.176;2024-03-07T10:17:44;1.10;;;1.10;;
33152;SDS011;19509;43.862;26.176;2024-03-07T10:20:11;1.13;;;1.13;;
33152;SDS011;19509;43.862;26.176;2024-03-07T10:22:39;1.30;;;1.30;;
33152;SDS011;19509;43.862;26.176;2024-03-07T10:25:04;1.13;;;1.10;;
33152;SDS011;19509;43.862;26.176;2024-03-07T10:27:30;1.07;;;1.07;;
33152;SDS011;19509;43.862;26.176;2024-03-07T10:29:55;1.10;;;1.10;;
33152;SDS011;19509;43.862;26.176;2024-03-07T10:32:23;1.10;;;1.10;;
33152;SDS011;19509;43.862;26.176;2024-03-07T10:34:53;1.10;;;1.10;;
33152;SDS011;19509;43.862;26.176;2024-03-07T10:37:18;1.20;;;1.20;;
33152;SDS011;19509;43.862;26.176;2024-03-07T10:39:48;0.90;;;0.90;;
33152;SDS011;19509;43.862;26.176;2024-03-07T10:42:17;1.07;;;1.07;;
33152;SDS011;19509;43.862;26.176;2024-03-07T10:44:44;1.10;;;1.10;;
33152;SDS011;19509;43.862;26.176;2024-03-07T10:47:19;0.90;;;0.90;;
33152;SDS011;19509;43.862;26.176;2024-03-07T10:52:23;0.97;;;0.97;;
33152;SDS011;19509;43.862;26.176;2024-03-07T10:54:57;1.00;;;1.00;;
33152;SDS011;19509;43.862;26.176;2024-03-07T10:59:59;1.10;;;1.10;;
33152;SDS011;19509;43.862;26.176;2024-03-07T11:02:39;1.10;;;1.10;;
33152;SDS011;19509;43.862;26.176;2024-03-07T11:05:06;0.90;;;0.90;;
33152;SDS011;19509;43.862;26.176;2024-03-07T11:07:37;1.20;;;1.20;;
33152;SDS011;19509;43.862;26.176;2024-03-07T11:10:02;1.00;;;1.00;;
33152;SDS011;19509;43.862;26.176;2024-03-07T11:12:31;0.90;;;0.90;;
33152;SDS011;19509;43.862;26.176;2024-03-07T11:14:57;0.93;;;0.93;;
33152;SDS011;19509;43.862;26.176;2024-03-07T11:17:22;1.13;;;1.13;;
33152;SDS011;19509;43.862;26.176;2024-03-07T11:19:49;1.10;;;1.10;;
33152;SDS011;19509;43.862;26.176;2024-03-07T11:22:30;1.00;;;1.00;;
33152;SDS011;19509;43.862;26.176;2024-03-07T11:25:02;1.00;;;1.00;;
33152;SDS011;19509;43.862;26.176;2024-03-07T11:27:38;1.00;;;1.00;;
33152;SDS011;19509;43.862;26.176;2024-03-07T11:30:04;1.03;;;1.03;;
33152;SDS011;19509;43.862;26.176;2024-03-07T11:32:34;1.13;;;1.13;;
33152;SDS011;19509;43.862;26.176;2024-03-07T11:34:59;1.10;;;1.10;;
33152;SDS011;19509;43.862;26.176;2024-03-07T11:37:39;1.10;;;1.10;;
33152;SDS011;19509;43.862;26.176;2024-03-07T11:40:09;0.93;;;0.93;;
33152;SDS011;19509;43.862;26.176;2024-03-07T11:42:43;0.90;;;0.90;;
33152;SDS011;19509;43.862;26.176;2024-03-07T11:45:09;1.10;;;1.10;;
33152;SDS011;19509;43.862;26.176;2024-03-07T11:47:38;1.00;;;1.00;;
33152;SDS011;19509;43.862;26.176;2024-03-07T11:50:04;1.10;;;1.10;;
33152;SDS011;19509;43.862;26.176;2024-03-07T11:52:33;1.00;;;1.00;;
33152;SDS011;19509;43.862;26.176;2024-03-07T11:54:58;1.00;;;1.00;;
33152;SDS011;19509;43.862;26.176;2024-03-07T11:57:28;1.03;;;1.03;;
33152;SDS011;19509;43.862;26.176;2024-03-07T12:00:00;1.07;;;0.90;;
33152;SDS011;19509;43.862;26.176;2024-03-07T12:02:26;1.00;;;1.00;;
33152;SDS011;19509;43.862;26.176;2024-03-07T12:04:52;1.00;;;1.00;;
33152;SDS011;19509;43.862;26.176;2024-03-07T12:07:18;1.00;;;1.00;;
33152;SDS011;19509;43.862;26.176;2024-03-07T12:09:44;1.00;;;1.00;;
33152;SDS011;19509;43.862;26.176;2024-03-07T12:12:15;1.10;;;1.10;;
33152;SDS011;19509;43.862;26.176;2024-03-07T12:14:42;1.10;;;1.10;;
33152;SDS011;19509;43.862;26.176;2024-03-07T12:17:07;1.03;;;1.03;;
33152;SDS011;19509;43.862;26.176;2024-03-07T12:19:34;0.90;;;0.90;;
33152;SDS011;19509;43.862;26.176;2024-03-07T12:22:00;1.23;;;1.23;;
33152;SDS011;19509;43.862;26.176;2024-03-07T12:24:25;0.80;;;0.80;;
33152;SDS011;19509;43.862;26.176;2024-03-07T12:26:51;1.00;;;1.00;;
33152;SDS011;19509;43.862;26.176;2024-03-07T12:29:16;1.13;;;1.13;;
33152;SDS011;19509;43.862;26.176;2024-03-07T12:31:42;0.97;;;0.97;;
33152;SDS011;19509;43.862;26.176;2024-03-07T12:34:10;1.20;;;1.10;;
33152;SDS011;19509;43.862;26.176;2024-03-07T12:36:35;0.90;;;0.90;;
33152;SDS011;19509;43.862;26.176;2024-03-07T12:39:21;1.03;;;1.03;;
33152;SDS011;19509;43.862;26.176;2024-03-07T12:41:49;0.93;;;0.93;;
33152;SDS011;19509;43.862;26.176;2024-03-07T12:44:18;1.00;;;1.00;;
33152;SDS011;19509;43.862;26.176;2024-03-07T12:46:45;1.00;;;1.00;;
33152;SDS011;19509;43.862;26.176;2024-03-07T12:49:11;1.07;;;1.07;;
33152;SDS011;19509;43.862;26.176;2024-03-07T12:51:36;0.90;;;0.90;;
33152;SDS011;19509;43.862;26.176;2024-03-07T12:54:02;1.20;;;1.20;;
33152;SDS011;19509;43.862;26.176;2024-03-07T12:56:31;1.10;;;1.10;;
33152;SDS011;19509;43.862;26.176;2024-03-07T12:58:59;1.10;;;1.10;;
33152;SDS011;19509;43.862;26.176;2024-03-07T13:01:26;0.90;;;0.90;;
33152;SDS011;19509;43.862;26.176;2024-03-07T13:03:52;1.10;;;1.10;;
33152;SDS011;19509;43.862;26.176;2024-03-07T13:06:18;0.97;;;0.97;;
33152;SDS011;19509;43.862;26.176;2024-03-07T13:09:02;1.00;;;1.00;;
33152;SDS011;19509;43.862;26.176;2024-03-07T13:11:28;1.10;;;1.10;;
33152;SDS011;19509;43.862;26.176;2024-03-07T13:13:57;1.10;;;1.10;;
33152;SDS011;19509;43.862;26.176;2024-03-07T13:16:22;1.00;;;1.00;;
33152;SDS011;19509;43.862;26.176;2024-03-07T13:18:53;1.07;;;1.07;;
33152;SDS011;19509;43.862;26.176;2024-03-07T13:21:19;1.00;;;1.00;;
33152;SDS011;19509;43.862;26.176;2024-03-07T13:23:45;1.00;;;1.00;;
33152;SDS011;19509;43.862;26.176;2024-03-07T13:26:10;1.00;;;1.00;;
33152;SDS011;19509;43.862;26.176;2024-03-07T13:28:44;1.20;;;1.00;;
33152;SDS011;19509;43.862;26.176;2024-03-07T13:31:10;0.90;;;0.90;;
33152;SDS011;19509;43.862;26.176;2024-03-07T13:33:42;0.90;;;0.90;;
33152;SDS011;19509;43.862;26.176;2024-03-07T13:36:07;1.10;;;1.10;;
33152;SDS011;19509;43.862;26.176;2024-03-07T13:38:33;1.13;;;1.13;;
33152;SDS011;19509;43.862;26.176;2024-03-07T13:40:58;1.10;;;1.10;;
33152;SDS011;19509;43.862;26.176;2024-03-07T13:43:24;1.17;;;1.17;;
33152;SDS011;19509;43.862;26.176;2024-03-07T13:45:49;1.00;;;1.00;;
33152;SDS011;19509;43.862;26.176;2024-03-07T13:48:14;1.00;;;1.00;;
33152;SDS011;19509;43.862;26.176;2024-03-07T13:50:42;1.00;;;1.00;;
33152;SDS011;19509;43.862;26.176;2024-03-07T13:53:13;1.00;;;1.00;;
33152;SDS011;19509;43.862;26.176;2024-03-07T14:28:17;1.43;;;1.43;;
33152;SDS011;19509;43.862;26.176;2024-03-07T14:30:52;1.30;;;1.30;;
33152;SDS011;19509;43.862;26.176;2024-03-07T14:33:29;1.37;;;1.37;;
33152;SDS011;19509;43.862;26.176;2024-03-07T14:36:00;1.20;;;1.20;;
33152;SDS011;19509;43.862;26.176;2024-03-07T14:41:07;1.10;;;1.10;;
33152;SDS011;19509;43.862;26.176;2024-03-07T14:43:34;1.17;;;1.17;;
33152;SDS011;19509;43.862;26.176;2024-03-07T14:45:59;1.10;;;1.10;;
33152;SDS011;19509;43.862;26.176;2024-03-07T14:48:24;1.00;;;1.00;;
33152;SDS011;19509;43.862;26.176;2024-03-07T14:50:50;1.00;;;1.00;;
33152;SDS011;19509;43.862;26.176;2024-03-07T14:53:16;1.10;;;1.10;;
33152;SDS011;19509;43.862;26.176;2024-03-07T14:55:45;1.10;;;1.10;;
33152;SDS011;19509;43.862;26.176;2024-03-07T14:58:10;0.93;;;0.93;;
33152;SDS011;19509;43.862;26.176;2024-03-07T15:00:37;0.93;;;0.93;;
33152;SDS011;19509;43.862;26.176;2024-03-07T15:03:06;0.90;;;0.90;;
33152;SDS011;19509;43.862;26.176;2024-03-07T15:05:32;1.10;;;1.10;;
33152;SDS011;19509;43.862;26.176;2024-03-07T15:07:59;1.20;;;1.20;;
33152;SDS011;19509;43.862;26.176;2024-03-07T15:10:26;0.90;;;0.90;;